Terminal Aerodrome Forecast
Issued by NWS

Home | Current Version | Previous Version | Text Only | Print | Product List | Glossary On
Versions: 1 2 3 4 5 6 7 8 9 10 11 12 13 14 15 16 17 18 19 20 21 22 23 24 25
000
FTUS44 KLIX 300123 AAA
TAFHDC
TAF AMD
KHDC 300123Z 3001/3024 04006KT P6SM VCTS SCT030CB OVC050
      TEMPO 3001/3003 VRB15G20KT 5SM -TSRA BKN030CB OVC050
     FM300300 VRB05KT P6SM SCT050 SCT250
     FM301400 34006KT P6SM SCT200=

USA.gov is the U.S. government's official web portal to all federal, state and local government web resources and services.